Time;durP1;ratioP1;P1;durP2;ratioP2;P2;SDS_P1;SDS_P2;PMS_P1;PMS_P2;Temp;Humidity;BMP_temperature;BMP_pressure;BME280_temperature;BME280_humidity;BME280_pressure;Samples;Min_cycle;Max_cycle;Signal;HPM_P1;HPM_P2
2023/08/11 00:01:34;;;;;;;3.25;3.05;;;;;;;18.06;87.28;102031.22;5035956;28;20033;-76
2023/08/11 00:03:59;;;;;;;3.05;2.85;;;;;;;18.04;87.52;102030.47;5036195;28;20045;-76
2023/08/11 00:06:25;;;;;;;3.38;2.92;;;;;;;18.02;87.55;102033.19;5035797;28;20041;-76
2023/08/11 00:08:52;;;;;;;3.55;3.17;;;;;;;18.01;87.32;102030.66;5036559;28;20034;-76
2023/08/11 00:11:18;;;;;;;3.47;3.17;;;;;;;17.99;87.51;102032.50;5035516;28;20272;-76
2023/08/11 00:13:43;;;;;;;3.63;3.42;;;;;;;17.97;87.48;102026.41;5036304;28;20044;-76
2023/08/11 00:16:10;;;;;;;6.03;3.10;;;;;;;17.95;87.72;102026.50;5036076;28;20106;-76
2023/08/11 00:18:35;;;;;;;3.30;3.08;;;;;;;17.94;87.72;102026.59;5035077;28;20359;-76
2023/08/11 00:21:02;;;;;;;3.35;3.15;;;;;;;17.93;87.93;102019.59;5036005;28;20061;-76
2023/08/11 00:23:27;;;;;;;3.58;3.35;;;;;;;17.91;88.10;102016.16;5035287;28;20356;-76
2023/08/11 00:25:53;;;;;;;3.58;3.38;;;;;;;17.89;88.21;102018.88;5035762;28;20040;-76
2023/08/11 00:28:18;;;;;;;3.58;3.30;;;;;;;17.88;88.26;102016.31;5035366;28;20064;-76
2023/08/11 00:30:44;;;;;;;3.63;3.33;;;;;;;17.86;88.27;102005.78;5035827;28;20029;-76
2023/08/11 00:33:10;;;;;;;4.75;3.10;;;;;;;17.84;88.41;102008.50;5035686;28;20037;-76
2023/08/11 00:35:35;;;;;;;3.30;3.05;;;;;;;17.84;88.43;102007.63;5034930;28;20041;-76
2023/08/11 00:38:01;;;;;;;3.25;3.05;;;;;;;17.82;88.38;102002.41;5035484;28;20228;-76
2023/08/11 00:40:26;;;;;;;3.22;2.97;;;;;;;17.80;88.53;102000.78;5016841;28;20045;-76
2023/08/11 00:42:52;;;;;;;3.22;3.03;;;;;;;17.80;88.56;102003.44;5035689;28;20036;-76
2023/08/11 00:45:18;;;;;;;4.07;3.15;;;;;;;17.77;88.71;102007.13;5035214;28;20068;-76
2023/08/11 00:47:45;;;;;;;3.20;2.90;;;;;;;17.76;88.76;101997.44;5035467;28;20029;-76
2023/08/11 00:50:12;;;;;;;2.88;2.67;;;;;;;17.74;88.80;101996.69;5035482;28;20038;-76
2023/08/11 00:52:38;;;;;;;3.47;3.17;;;;;;;17.72;88.74;101985.31;5033703;28;20045;-76
2023/08/11 00:55:04;;;;;;;3.53;3.22;;;;;;;17.73;89.10;101986.16;5035422;28;20438;-76
2023/08/11 00:57:31;;;;;;;3.35;3.15;;;;;;;17.70;88.99;101986.31;5034563;28;20041;-76
2023/08/11 00:59:57;;;;;;;3.60;3.30;;;;;;;17.68;89.17;101989.03;5035216;28;20071;-76
2023/08/11 01:02:23;;;;;;;3.40;3.10;;;;;;;17.66;89.11;101993.56;5034847;28;20048;-76
2023/08/11 01:04:48;;;;;;;5.40;3.00;;;;;;;17.64;89.39;101985.72;5035083;28;20045;-76
2023/08/11 01:07:23;;;;;;;6.00;3.47;;;;;;;17.63;89.53;101991.09;5035288;28;20033;-76
2023/08/11 01:10:21;;;;;;;3.17;2.97;;;;;;;17.60;89.65;101988.59;5035190;28;20228;-76
2023/08/11 01:12:55;;;;;;;;;;;;;;;17.58;90.00;101987.81;5021617;28;20065;-76
2023/08/11 01:15:26;;;;;;;3.22;2.85;;;;;;;17.55;90.02;101985.31;5034865;28;20023;-76
2023/08/11 01:17:53;;;;;;;3.60;3.25;;;;;;;17.55;89.96;101993.25;5034903;28;20358;-76
2023/08/11 01:20:19;;;;;;;3.80;3.50;;;;;;;17.52;90.13;101989.00;5034161;28;20045;-76
2023/08/11 01:22:47;;;;;;;3.53;3.33;;;;;;;17.52;90.28;101980.19;5035205;28;20021;-76
2023/08/11 01:25:14;;;;;;;3.10;2.90;;;;;;;17.51;90.25;101978.47;5034890;28;20308;-76
2023/08/11 01:27:52;;;;;;;4.78;3.33;;;;;;;17.49;90.12;101973.25;5034091;28;20041;-76
2023/08/11 01:30:17;;;;;;;;;;;;;;;17.49;90.53;101972.41;5035144;28;20037;-76
2023/08/11 01:32:44;;;;;;;3.60;3.30;;;;;;;17.45;90.39;101963.75;5034439;28;19913;-76
2023/08/11 01:35:10;;;;;;;3.10;2.90;;;;;;;17.45;90.55;101966.41;5034671;28;20036;-76
2023/08/11 01:37:35;;;;;;;3.25;3.05;;;;;;;17.45;90.55;101963.75;5033984;28;20037;-76
2023/08/11 01:40:01;;;;;;;3.60;3.35;;;;;;;17.43;90.54;101960.34;5034693;28;20052;-76
2023/08/11 01:42:26;;;;;;;3.60;3.33;;;;;;;17.43;90.66;101970.94;5033909;28;20043;-76
2023/08/11 01:44:52;;;;;;;3.40;3.10;;;;;;;17.42;90.73;101955.97;5034496;28;20064;-76
2023/08/11 01:47:19;;;;;;;3.00;2.80;;;;;;;17.40;90.92;101964.00;5034063;28;20096;-76
2023/08/11 01:49:46;;;;;;;7.25;3.10;;;;;;;17.39;90.81;101958.75;5034549;28;20594;-76
2023/08/11 01:52:12;;;;;;;3.92;3.10;;;;;;;17.39;90.94;101953.47;5034381;28;20268;-76
2023/08/11 01:54:38;;;;;;;3.97;3.50;;;;;;;17.38;90.93;101967.66;5015540;28;20022;-76
2023/08/11 01:57:05;;;;;;;4.97;2.92;;;;;;;17.37;91.07;101971.22;5034409;28;20305;-76
2023/08/11 01:59:30;;;;;;;3.55;3.25;;;;;;;17.35;91.22;101973.97;5034002;28;20029;-76
2023/08/11 02:01:56;;;;;;;4.07;3.78;;;;;;;17.34;90.95;101977.56;5034325;28;20163;-76
2023/08/11 02:04:22;;;;;;;3.22;3.03;;;;;;;17.34;90.99;101979.34;5033444;28;20037;-76
2023/08/11 02:06:48;;;;;;;3.40;3.20;;;;;;;17.33;91.17;101974.97;5034451;28;20344;-76
2023/08/11 02:09:14;;;;;;;3.47;3.10;;;;;;;17.32;90.92;101974.13;5033953;28;20519;-76
2023/08/11 02:11:39;;;;;;;3.30;3.10;;;;;;;17.31;91.13;101969.75;5033379;28;20038;-76
2023/08/11 02:14:05;;;;;;;3.88;3.58;;;;;;;17.29;91.03;101963.69;5034383;28;20198;-76
2023/08/11 02:16:31;;;;;;;3.50;3.20;;;;;;;17.29;91.07;101966.34;5039021;28;20045;-73
2023/08/11 02:18:57;;;;;;;3.58;3.38;;;;;;;17.27;91.09;101969.06;5039863;28;20328;-73
2023/08/11 02:21:22;;;;;;;5.35;3.10;;;;;;;17.26;91.18;101970.00;5040071;28;20033;-73
2023/08/11 02:23:48;;;;;;;3.60;3.15;;;;;;;17.26;91.04;101966.50;5039710;28;20037;-73
2023/08/11 02:26:14;;;;;;;3.20;3.00;;;;;;;17.25;91.18;101972.72;5039454;28;20095;-73
2023/08/11 02:28:40;;;;;;;3.40;3.10;;;;;;;17.24;91.28;101971.00;5039080;28;20064;-73
2023/08/11 02:31:07;;;;;;;5.65;3.28;;;;;;;17.23;91.31;101966.66;5039432;28;20037;-73
2023/08/11 02:33:33;;;;;;;3.85;2.97;;;;;;;17.21;91.25;101953.50;5034298;28;20041;-74
2023/08/11 02:35:58;;;;;;;4.78;3.13;;;;;;;17.21;91.27;101956.16;5022560;28;20040;-74
2023/08/11 02:38:24;;;;;;;5.07;3.28;;;;;;;17.20;91.44;101953.56;5013578;28;20041;-74
2023/08/11 02:40:50;;;;;;;3.28;2.92;;;;;;;17.19;91.30;101951.84;5025200;28;20029;-74
2023/08/11 02:43:15;;;;;;;3.25;3.05;;;;;;;17.18;91.23;101952.81;5033901;28;20125;-74
2023/08/11 02:45:41;;;;;;;4.85;3.00;;;;;;;17.16;91.36;101950.22;5033631;28;20057;-74
2023/08/11 02:48:06;;;;;;;3.67;3.42;;;;;;;17.15;91.39;101950.31;5033656;28;20044;-74
2023/08/11 02:50:32;;;;;;;4.75;3.40;;;;;;;17.14;91.39;101952.09;5033616;28;20037;-74
2023/08/11 02:52:58;;;;;;;7.68;3.30;;;;;;;17.13;91.45;101952.16;5034036;28;20260;-74
2023/08/11 02:55:23;;;;;;;3.17;2.97;;;;;;;17.12;91.47;101950.44;5033485;28;20037;-74
2023/08/11 02:57:49;;;;;;;3.25;3.05;;;;;;;17.11;91.38;101954.03;5034097;28;20173;-74
2023/08/11 03:00:14;;;;;;;3.38;3.08;;;;;;;17.11;91.85;101954.03;5034192;28;20045;-74
2023/08/11 03:02:45;;;;;;;5.03;3.10;;;;;;;17.08;91.75;101947.97;5033032;28;20051;-74
2023/08/11 03:05:11;;;;;;;3.58;3.20;;;;;;;17.07;91.65;101953.34;5033139;28;20054;-74
2023/08/11 03:07:38;;;;;;;3.13;2.92;;;;;;;17.05;91.76;101945.47;5033096;28;20033;-74
2023/08/11 03:10:04;;;;;;;3.42;3.00;;;;;;;17.05;91.56;101947.28;5033421;28;20060;-74
2023/08/11 03:12:29;;;;;;;2.92;2.72;;;;;;;17.03;91.68;101939.41;5033796;28;20262;-74
2023/08/11 03:14:55;;;;;;;6.40;3.40;;;;;;;17.03;91.88;101942.06;5033811;28;20096;-74
2023/08/11 03:17:21;;;;;;;3.63;3.33;;;;;;;17.03;91.83;101935.91;5036717;28;20224;-74
2023/08/11 03:19:46;;;;;;;3.90;3.20;;;;;;;17.03;91.79;101941.22;5037198;28;20049;-74
2023/08/11 03:22:13;;;;;;;3.78;3.47;;;;;;;17.03;91.61;101938.56;5037691;28;20044;-74
2023/08/11 03:24:39;;;;;;;3.30;3.05;;;;;;;17.00;91.81;101936.91;5036254;28;20040;-74
2023/08/11 03:27:05;;;;;;;3.60;3.30;;;;;;;17.00;91.83;101944.00;5037108;28;20312;-74
2023/08/11 03:29:31;;;;;;;3.60;3.38;;;;;;;16.99;91.96;101947.56;5036480;28;20327;-74
2023/08/11 03:31:56;;;;;;;3.22;2.85;;;;;;;16.98;92.11;101945.88;5036931;28;20052;-74
2023/08/11 03:34:22;;;;;;;3.38;3.15;;;;;;;16.97;92.08;101952.06;5036290;28;20029;-73
2023/08/11 03:36:47;;;;;;;3.97;3.58;;;;;;;16.96;92.17;101947.75;5037036;28;20037;-73
2023/08/11 03:39:13;;;;;;;3.35;3.15;;;;;;;16.94;92.34;101937.22;5036870;28;20033;-73
2023/08/11 03:41:38;;;;;;;3.90;3.70;;;;;;;16.95;92.21;101938.06;5036158;28;20109;-73
2023/08/11 03:44:04;;;;;;;4.00;3.38;;;;;;;16.94;92.29;101925.78;5036897;28;20033;-73
2023/08/11 03:46:30;;;;;;;4.07;3.47;;;;;;;16.93;92.39;101929.34;5036645;28;20059;-73
2023/08/11 03:48:55;;;;;;;3.65;3.45;;;;;;;16.92;92.42;101925.00;5036350;28;20217;-74
2023/08/11 03:51:20;;;;;;;3.92;3.63;;;;;;;16.91;92.47;101926.78;5036614;28;20037;-74
2023/08/11 03:53:47;;;;;;;3.55;3.28;;;;;;;16.89;92.59;101926.84;5036728;28;20033;-74
2023/08/11 03:56:12;;;;;;;4.25;3.95;;;;;;;16.89;92.51;101920.72;5036109;28;20057;-74
2023/08/11 03:58:37;;;;;;;3.63;3.42;;;;;;;16.88;92.66;101919.00;5035744;28;20044;-74
2023/08/11 04:01:04;;;;;;;3.92;3.72;;;;;;;16.87;92.46;101912.00;5036651;28;20060;-74
2023/08/11 04:03:31;;;;;;;4.63;4.10;;;;;;;16.86;92.54;101905.88;5035625;28;20040;-74
2023/08/11 04:05:59;;;;;;;4.10;3.80;;;;;;;16.86;92.35;101910.28;5036000;28;20049;-74
2023/08/11 04:08:26;;;;;;;3.80;3.50;;;;;;;16.84;92.47;101898.91;5036121;28;20356;-73
2023/08/11 04:10:52;;;;;;;4.93;4.45;;;;;;;16.84;92.59;101897.13;5036456;28;20037;-73
2023/08/11 04:13:18;;;;;;;4.30;4.00;;;;;;;16.82;92.58;101896.31;5036110;28;20033;-73
2023/08/11 04:15:45;;;;;;;6.00;4.53;;;;;;;16.82;92.63;101896.31;5036192;28;20092;-74
2023/08/11 04:18:11;;;;;;;5.68;4.38;;;;;;;16.81;92.46;101894.63;5035753;28;20037;-74
2023/08/11 04:20:37;;;;;;;4.78;4.47;;;;;;;16.80;92.64;101887.59;5035111;28;20096;-74
2023/08/11 04:23:03;;;;;;;5.50;5.00;;;;;;;16.80;92.55;101887.59;5035985;28;20099;-74
2023/08/11 04:25:29;;;;;;;5.18;4.78;;;;;;;16.79;92.45;101882.38;5035223;28;20037;-74
2023/08/11 04:27:55;;;;;;;7.45;5.20;;;;;;;16.79;92.59;101879.75;5035673;28;20043;-74
2023/08/11 04:30:21;;;;;;;5.82;5.22;;;;;;;16.77;92.32;101885.13;5035391;28;20033;-74
2023/08/11 04:32:47;;;;;;;6.53;5.40;;;;;;;16.78;92.34;101878.03;5035923;28;20063;-74
2023/08/11 04:35:12;;;;;;;5.80;5.00;;;;;;;16.77;92.39;101877.19;5035747;28;20041;-74
2023/08/11 04:37:38;;;;;;;5.82;5.32;;;;;;;16.77;92.42;101876.31;5035145;28;20048;-74
2023/08/11 04:40:10;;;;;;;6.05;5.50;;;;;;;16.76;92.19;101882.56;5035471;28;20045;-74
2023/08/11 04:42:36;;;;;;;5.75;5.25;;;;;;;16.76;92.27;101877.28;5035347;28;20067;-74
2023/08/11 04:45:01;;;;;;;6.22;5.18;;;;;;;16.75;92.14;101881.69;5035439;28;20389;-74
2023/08/11 04:47:27;;;;;;;8.55;6.07;;;;;;;16.75;92.15;101873.75;5034683;28;20029;-74
2023/08/11 04:49:52;;;;;;;6.07;5.55;;;;;;;16.73;92.27;101867.69;5035563;28;20075;-74
2023/08/11 04:52:18;;;;;;;8.25;4.72;;;;;;;16.73;91.95;101866.84;5034880;28;20104;-74
2023/08/11 04:54:43;;;;;;;6.28;5.55;;;;;;;16.73;91.84;101872.13;5035224;28;20041;-74
2023/08/11 04:57:08;;;;;;;6.13;5.55;;;;;;;16.73;91.97;101872.13;5035458;28;20049;-74
2023/08/11 04:59:34;;;;;;;6.10;5.60;;;;;;;16.73;91.80;101872.13;5034978;28;20041;-74
2023/08/11 05:02:00;;;;;;;11.35;5.70;;;;;;;16.72;91.80;101873.94;5035759;28;20044;-74
2023/08/11 05:04:25;;;;;;;7.40;5.57;;;;;;;16.72;91.87;101875.69;5034714;28;20096;-74
2023/08/11 05:06:51;;;;;;;5.55;5.05;;;;;;;16.71;91.81;101880.13;5035143;28;20069;-74
2023/08/11 05:09:16;;;;;;;6.43;5.82;;;;;;;16.72;91.93;101878.34;5034814;28;20029;-74
2023/08/11 05:11:42;;;;;;;6.00;5.38;;;;;;;16.72;92.00;101888.91;5034832;28;20064;-74
2023/08/11 05:14:07;;;;;;;9.85;6.18;;;;;;;16.70;92.01;101881.09;5035038;28;20049;-74
2023/08/11 05:16:32;;;;;;;7.47;6.07;;;;;;;16.70;92.08;101873.16;5034277;28;20241;-74
2023/08/11 05:18:58;;;;;;;8.52;5.68;;;;;;;16.70;91.64;101875.78;5034787;28;20135;-74
2023/08/11 05:21:23;;;;;;;6.72;5.70;;;;;;;16.69;91.95;101866.97;5034229;28;20036;-74
2023/08/11 05:23:49;;;;;;;9.85;5.90;;;;;;;16.70;91.95;101865.22;5035502;28;20208;-74
2023/08/11 05:26:14;;;;;;;13.55;5.88;;;;;;;16.70;91.96;101868.72;5034918;28;20324;-74
2023/08/11 05:28:39;;;;;;;10.88;5.80;;;;;;;16.70;91.93;101868.72;5034169;28;20104;-74
2023/08/11 05:31:05;;;;;;;7.82;5.90;;;;;;;16.70;92.01;101871.34;5016838;28;20259;-74
2023/08/11 05:33:31;;;;;;;13.82;6.10;;;;;;;16.73;91.86;101877.41;5034069;28;20052;-74
2023/08/11 05:35:56;;;;;;;10.70;5.95;;;;;;;16.72;91.77;101862.47;5034746;28;20038;-74
2023/08/11 05:38:22;;;;;;;6.38;5.65;;;;;;;16.72;92.00;101868.63;5033428;28;20067;-74
2023/08/11 05:40:48;;;;;;;5.70;5.20;;;;;;;16.74;92.05;101874.69;5034725;28;20040;-73
2023/08/11 05:43:14;;;;;;;10.60;5.43;;;;;;;16.75;91.82;101873.75;5034639;28;20037;-73
2023/08/11 05:45:39;;;;;;;8.55;6.10;;;;;;;16.75;91.98;101876.38;5033935;28;20037;-73
2023/08/11 05:48:05;;;;;;;5.65;5.15;;;;;;;16.75;91.82;101881.69;5034463;28;20060;-73
2023/08/11 05:50:30;;;;;;;7.43;5.80;;;;;;;16.77;91.97;101884.25;5033954;28;20041;-73
2023/08/11 05:52:56;;;;;;;6.45;5.68;;;;;;;16.77;92.00;101881.63;5034404;28;20331;-74
2023/08/11 05:55:22;;;;;;;7.75;5.85;;;;;;;16.78;91.99;101892.13;5033596;28;20323;-74
2023/08/11 05:57:47;;;;;;;8.07;6.50;;;;;;;16.78;92.23;101886.81;5034156;28;20040;-74
2023/08/11 06:00:14;;;;;;;10.65;6.30;;;;;;;16.79;91.98;101891.19;5034546;28;20037;-74
2023/08/11 06:02:39;;;;;;;7.85;5.65;;;;;;;16.79;91.88;101885.91;5033540;28;20048;-74
2023/08/11 06:05:05;;;;;;;9.02;6.43;;;;;;;16.81;92.14;101893.78;5034005;28;20055;-74
2023/08/11 06:07:30;;;;;;;9.65;6.47;;;;;;;16.82;92.22;101887.53;5033762;28;20033;-74
2023/08/11 06:09:56;;;;;;;9.55;6.28;;;;;;;16.83;92.15;101894.59;5033668;28;20029;-74
2023/08/11 06:12:21;;;;;;;8.30;5.93;;;;;;;16.84;92.20;101885.69;5033542;28;20336;-73
2023/08/11 06:14:47;;;;;;;7.03;6.05;;;;;;;16.85;92.20;101896.19;5034032;28;20037;-73
2023/08/11 06:17:12;;;;;;;8.15;6.68;;;;;;;16.87;92.29;101896.97;5033947;28;20056;-73
2023/08/11 06:19:38;;;;;;;8.57;6.25;;;;;;;16.88;92.33;101889.88;5033161;28;20427;-73
2023/08/11 06:22:03;;;;;;;7.20;5.57;;;;;;;16.89;92.37;101888.97;5033994;28;20048;-73
2023/08/11 06:24:29;;;;;;;10.90;6.03;;;;;;;16.89;92.35;101892.47;5033581;28;20040;-73
2023/08/11 06:26:54;;;;;;;7.82;5.82;;;;;;;16.93;92.47;101892.31;5033999;28;20200;-74
2023/08/11 06:29:20;;;;;;;11.18;5.90;;;;;;;16.94;92.47;101891.41;5033881;28;20083;-74
2023/08/11 06:31:46;;;;;;;6.75;5.82;;;;;;;16.95;92.51;101893.94;5034422;28;20030;-74
2023/08/11 06:34:12;;;;;;;7.20;5.85;;;;;;;16.97;92.70;101888.56;5033947;28;20029;-74
2023/08/11 06:36:37;;;;;;;5.82;5.22;;;;;;;16.98;92.53;101885.84;5033408;28;20080;-74
2023/08/11 06:39:03;;;;;;;5.55;5.00;;;;;;;17.00;92.68;101881.34;5033849;28;20044;-74
2023/08/11 06:41:28;;;;;;;6.35;5.13;;;;;;;17.02;92.88;101874.16;5032959;28;20566;-73
2023/08/11 06:43:54;;;;;;;8.57;5.10;;;;;;;17.05;92.95;101878.47;5033923;28;20041;-73
2023/08/11 06:46:19;;;;;;;7.38;4.90;;;;;;;17.06;92.79;101873.09;5033294;28;20079;-73
2023/08/11 06:48:45;;;;;;;6.13;4.38;;;;;;;17.07;92.76;101866.84;5033828;28;20029;-73
2023/08/11 06:51:10;;;;;;;4.80;4.40;;;;;;;17.12;93.03;101873.69;5037909;28;20041;-73
2023/08/11 06:53:35;;;;;;;5.32;4.82;;;;;;;17.15;93.11;101878.84;5037383;28;20033;-74
2023/08/11 06:56:01;;;;;;;7.57;4.85;;;;;;;17.15;93.04;101873.53;5037398;28;20187;-73
2023/08/11 06:58:26;;;;;;;6.35;4.72;;;;;;;17.19;93.40;101872.44;5037099;28;20085;-73
2023/08/11 07:00:52;;;;;;;6.07;4.70;;;;;;;17.22;93.34;101888.16;5037673;28;20033;-74
2023/08/11 07:03:17;;;;;;;4.82;4.30;;;;;;;17.24;93.54;101891.59;5037072;28;20056;-74
2023/08/11 07:05:42;;;;;;;4.43;4.03;;;;;;;17.26;93.64;101885.28;5037233;28;20124;-74
2023/08/11 07:08:08;;;;;;;5.97;4.25;;;;;;;17.30;93.69;101890.41;5037499;28;20096;-74
2023/08/11 07:10:33;;;;;;;7.25;4.60;;;;;;;17.33;93.98;101888.47;5036733;28;20033;-73
2023/08/11 07:12:58;;;;;;;3.53;3.22;;;;;;;17.36;93.55;101890.09;5037634;28;20053;-74
2023/08/11 07:15:24;;;;;;;5.75;4.78;;;;;;;17.39;93.97;101892.56;5036738;28;20033;-74
2023/08/11 07:17:50;;;;;;;6.93;3.50;;;;;;;17.43;93.99;101887.06;5037150;28;20340;-74
2023/08/11 07:20:15;;;;;;;5.25;3.75;;;;;;;17.46;93.87;101889.53;5037404;28;20263;-74
2023/08/11 07:22:41;;;;;;;5.38;3.80;;;;;;;17.51;93.83;101888.44;5036802;28;20030;-74
2023/08/11 07:25:07;;;;;;;6.30;3.60;;;;;;;17.54;93.89;101894.44;5036770;28;20045;-74
2023/08/11 07:27:32;;;;;;;4.72;3.72;;;;;;;17.57;93.74;101896.91;5036383;28;20052;-74
2023/08/11 07:29:58;;;;;;;6.75;4.05;;;;;;;17.63;93.87;101901.03;5037375;28;20033;-74
2023/08/11 07:32:23;;;;;;;6.60;4.15;;;;;;;17.66;93.69;101906.13;5036514;28;20295;-74
2023/08/11 07:34:49;;;;;;;4.13;3.67;;;;;;;17.70;93.54;101894.47;5036699;28;20061;-74
2023/08/11 07:37:14;;;;;;;4.72;3.88;;;;;;;17.74;93.56;101896.00;5036770;28;20056;-74
2023/08/11 07:39:40;;;;;;;5.28;4.10;;;;;;;17.78;93.15;101902.84;5036294;28;20228;-74
2023/08/11 07:42:05;;;;;;;7.35;3.45;;;;;;;17.80;93.08;101890.34;5036457;28;20124;-74
2023/08/11 07:44:31;;;;;;;5.63;3.78;;;;;;;17.84;93.14;101897.22;5036108;28;20045;-74
2023/08/11 07:46:57;;;;;;;6.75;3.63;;;;;;;17.88;93.44;101889.97;5037149;28;20061;-74
2023/08/11 07:49:23;;;;;;;5.28;3.80;;;;;;;17.93;93.50;101897.69;5036157;28;20037;-74
2023/08/11 07:51:49;;;;;;;4.35;3.95;;;;;;;17.97;93.59;101897.44;5036432;28;20033;-74
2023/08/11 07:54:16;;;;;;;5.22;3.60;;;;;;;18.01;93.33;101893.66;5036527;28;20032;-74
2023/08/11 07:56:43;;;;;;;4.30;3.33;;;;;;;18.07;93.49;101903.06;5036345;28;20037;-74
2023/08/11 07:59:08;;;;;;;6.05;3.67;;;;;;;18.12;93.57;101905.44;5036354;28;20041;-74
2023/08/11 08:01:34;;;;;;;4.00;3.63;;;;;;;18.16;93.53;101907.03;5035381;28;20057;-74
2023/08/11 08:03:59;;;;;;;5.72;3.90;;;;;;;18.19;93.76;101907.69;5036471;28;20126;-74
2023/08/11 08:06:25;;;;;;;5.78;3.88;;;;;;;18.22;93.63;101915.47;5035703;28;20115;-74
2023/08/11 08:08:50;;;;;;;4.03;3.63;;;;;;;18.26;93.45;101913.50;5036229;28;20045;-74
2023/08/11 08:11:15;;;;;;;4.15;3.60;;;;;;;18.29;93.34;101915.13;5035923;28;20060;-74
2023/08/11 08:13:41;;;;;;;6.10;3.95;;;;;;;18.33;93.63;101916.66;5035951;28;20214;-74
2023/08/11 08:16:06;;;;;;;5.82;4.18;;;;;;;18.37;94.28;101915.53;5036130;28;20060;-74
2023/08/11 08:18:32;;;;;;;6.80;3.95;;;;;;;18.41;93.94;101906.50;5017626;28;20048;-74
2023/08/11 08:20:57;;;;;;;7.43;4.20;;;;;;;18.45;93.76;101907.19;5036220;28;20033;-74
2023/08/11 08:23:23;;;;;;;5.88;4.40;;;;;;;18.48;93.78;101907.84;5035433;28;20045;-74
2023/08/11 08:25:48;;;;;;;7.57;3.78;;;;;;;18.51;93.58;101912.13;5035617;28;20052;-74
2023/08/11 08:28:13;;;;;;;4.40;4.10;;;;;;;18.55;93.42;101908.34;5035734;28;20059;-74
2023/08/11 08:30:39;;;;;;;6.75;3.92;;;;;;;18.57;93.66;101915.28;5035134;28;20030;-74
2023/08/11 08:33:06;;;;;;;4.03;3.40;;;;;;;18.61;93.29;101913.31;5036036;28;20071;-74
2023/08/11 08:35:31;;;;;;;5.28;4.13;;;;;;;18.65;93.60;101911.34;5035307;28;20045;-74
2023/08/11 08:37:56;;;;;;;3.72;3.35;;;;;;;18.69;93.70;101904.91;5036161;28;20064;-74
2023/08/11 08:40:23;;;;;;;14.07;4.38;;;;;;;18.73;94.01;101915.22;5035379;28;20295;-74
2023/08/11 08:42:49;;;;;;;8.27;3.70;;;;;;;18.78;93.99;101912.31;5036040;28;20025;-74
2023/08/11 08:45:16;;;;;;;7.10;3.60;;;;;;;18.82;93.97;101913.88;5035878;28;20388;-74
2023/08/11 08:47:42;;;;;;;4.15;3.78;;;;;;;18.86;93.98;101914.56;5035588;28;20037;-74
2023/08/11 08:50:09;;;;;;;3.72;3.22;;;;;;;18.91;93.92;101915.16;5035841;28;20292;-74
2023/08/11 08:52:34;;;;;;;6.63;3.83;;;;;;;18.96;94.34;101913.09;5034970;28;20290;-74
2023/08/11 08:55:01;;;;;;;7.05;4.43;;;;;;;19.01;94.10;101918.09;5035372;28;20056;-74
2023/08/11 08:57:26;;;;;;;4.05;3.65;;;;;;;19.06;93.98;101916.03;5035224;28;20049;-74
2023/08/11 08:59:52;;;;;;;3.55;3.25;;;;;;;19.08;93.51;101911.47;5035257;28;20343;-74
2023/08/11 09:02:19;;;;;;;10.00;3.75;;;;;;;19.12;94.02;101908.56;5034748;28;20044;-74
2023/08/11 09:04:45;;;;;;;6.00;3.78;;;;;;;19.15;93.93;101908.34;5034768;28;20040;-74
2023/08/11 09:07:12;;;;;;;3.67;3.30;;;;;;;19.19;93.87;101906.38;5035316;28;20065;-74
2023/08/11 09:09:38;;;;;;;5.30;3.85;;;;;;;19.24;93.83;101904.31;5034391;28;20071;-74
2023/08/11 09:12:03;;;;;;;3.72;3.05;;;;;;;19.29;93.91;101904.03;5034771;28;20041;-74
2023/08/11 09:14:29;;;;;;;5.22;3.53;;;;;;;19.34;94.20;101899.31;5033497;28;20332;-74
2023/08/11 09:16:54;;;;;;;5.15;3.60;;;;;;;19.40;94.24;101896.25;5035028;28;20033;-74
2023/08/11 09:19:20;;;;;;;3.00;2.83;;;;;;;19.43;94.02;101901.41;5034152;28;20224;-74
2023/08/11 09:21:47;;;;;;;4.63;3.83;;;;;;;19.47;93.78;101902.91;5034883;28;20025;-74
2023/08/11 09:24:13;;;;;;;4.78;3.50;;;;;;;19.53;93.96;101896.38;5034584;28;20371;-74
2023/08/11 09:26:44;;;;;;;5.05;3.10;;;;;;;19.59;93.92;101905.75;5034224;28;20037;-74
2023/08/11 09:29:11;;;;;;;4.38;3.97;;;;;;;19.64;94.28;101906.31;5034715;28;20037;-74
2023/08/11 09:31:37;;;;;;;5.78;3.25;;;;;;;19.69;94.16;101905.09;5034209;28;20240;-74
2023/08/11 09:34:14;;;;;;;3.92;3.40;;;;;;;19.75;94.21;101906.53;5034761;28;20041;-74
2023/08/11 09:36:42;;;;;;;3.65;3.17;;;;;;;19.81;94.45;101911.50;5034213;28;20037;-74
2023/08/11 09:39:08;;;;;;;3.15;2.92;;;;;;;19.85;94.23;101913.00;5034563;28;20041;-74
2023/08/11 09:41:40;;;;;;;5.55;3.28;;;;;;;19.91;93.73;101909.94;5033475;28;20030;-74
2023/08/11 09:44:06;;;;;;;4.25;3.42;;;;;;;19.96;93.83;101916.78;5034714;28;20100;-74
2023/08/11 09:46:31;;;;;;;3.28;3.00;;;;;;;20.00;94.01;101913.81;5033617;28;20191;-74
2023/08/11 09:48:56;;;;;;;3.25;3.00;;;;;;;20.06;93.83;101909.91;5034285;28;20096;-74
2023/08/11 09:51:22;;;;;;;6.75;3.92;;;;;;;20.11;93.74;101907.81;5033909;28;20033;-74
2023/08/11 09:53:49;;;;;;;6.38;4.00;;;;;;;20.16;93.48;101899.56;5034458;28;20337;-74
2023/08/11 09:56:17;;;;;;;4.43;3.45;;;;;;;20.19;93.31;101894.88;5034317;28;20092;-74
2023/08/11 09:58:45;;;;;;;8.75;3.17;;;;;;;20.25;93.55;101905.13;5034294;28;20240;-74
2023/08/11 10:01:12;;;;;;;3.15;2.90;;;;;;;20.29;93.10;101897.81;5034434;28;20037;-74
2023/08/11 10:03:45;;;;;;;4.65;3.17;;;;;;;20.35;93.14;101902.72;5033544;28;20045;-74
2023/08/11 10:06:23;;;;;;;3.67;3.33;;;;;;;20.40;93.48;101905.09;5033834;28;20116;-74
2023/08/11 10:08:50;;;;;;;3.80;3.50;;;;;;;20.44;93.27;101914.56;5034113;28;20244;-74
2023/08/11 10:11:19;;;;;;;10.37;3.20;;;;;;;20.49;93.07;101915.13;5033699;28;20033;-74
2023/08/11 10:13:46;;;;;;;6.55;3.05;;;;;;;20.52;93.12;101914.94;5016433;28;20074;-74
2023/08/11 10:16:12;;;;;;;3.35;3.05;;;;;;;20.56;92.71;101903.13;5033877;28;20045;-74
2023/08/11 10:18:43;;;;;;;5.30;3.03;;;;;;;20.61;92.86;101906.38;5033830;28;20201;-74
2023/08/11 10:21:09;;;;;;;4.57;3.25;;;;;;;20.64;92.84;101903.50;5034280;28;20044;-74
2023/08/11 10:23:37;;;;;;;3.20;2.90;;;;;;;20.69;92.79;101906.69;5033961;28;20252;-75
2023/08/11 10:26:03;;;;;;;4.80;3.42;;;;;;;20.72;92.41;101905.66;5040274;28;20030;-74
2023/08/11 10:28:29;;;;;;;4.78;3.50;;;;;;;20.76;92.56;101904.50;5040194;28;20037;-74
2023/08/11 10:30:57;;;;;;;3.97;3.17;;;;;;;20.83;92.75;101904.91;5040651;28;20100;-74
2023/08/11 10:33:22;;;;;;;4.00;3.70;;;;;;;20.87;92.88;101909.94;5039665;28;20033;-74
2023/08/11 10:35:49;;;;;;;3.60;3.30;;;;;;;20.91;92.21;101907.94;5040395;28;20067;-74
2023/08/11 10:38:32;;;;;;;4.50;4.00;;;;;;;20.97;92.42;101907.50;5040407;28;20044;-74
2023/08/11 10:41:05;;;;;;;11.02;4.15;;;;;;;21.02;91.97;101909.88;5040097;28;20322;-74
2023/08/11 10:43:33;;;;;;;4.90;3.65;;;;;;;21.05;91.66;101913.19;5039705;28;20025;-74
2023/08/11 10:46:19;;;;;;;;;;;;;;;21.09;91.77;101913.81;5041333;28;20053;-74
2023/08/11 10:48:44;;;;;;;7.78;4.30;;;;;;;21.14;91.89;101914.38;5040176;28;19920;-74
2023/08/11 10:51:31;;;;;;;5.63;4.53;;;;;;;21.20;91.79;101911.25;5040694;28;20033;-74
2023/08/11 10:54:20;;;;;;;4.13;3.78;;;;;;;21.23;91.50;101913.72;5040784;28;20036;-74
2023/08/11 10:56:45;;;;;;;5.03;4.45;;;;;;;21.26;90.83;101921.47;5029401;28;20244;-74
2023/08/11 10:59:24;;;;;;;4.32;3.92;;;;;;;21.27;90.68;101917.88;5040489;28;20040;-74
2023/08/11 11:01:54;;;;;;;6.43;4.35;;;;;;;21.31;90.93;101921.19;5040395;28;20454;-74
2023/08/11 11:04:22;;;;;;;4.93;3.80;;;;;;;21.33;90.64;101913.09;5040183;28;20025;-74
2023/08/11 11:06:49;;;;;;;4.15;3.60;;;;;;;21.37;90.62;101925.22;5039881;28;20116;-74
2023/08/11 11:09:15;;;;;;;4.25;3.85;;;;;;;21.43;91.41;101920.34;5040553;28;20105;-74
2023/08/11 11:11:41;;;;;;;4.80;4.40;;;;;;;21.48;90.90;101920.03;5039294;28;20063;-74
2023/08/11 11:14:08;;;;;;;5.15;4.22;;;;;;;21.54;90.60;101924.06;5040622;28;20036;-74
2023/08/11 11:16:34;;;;;;;4.78;3.95;;;;;;;21.56;90.47;101923.03;5039795;28;20100;-74
2023/08/11 11:19:04;;;;;;;4.65;3.97;;;;;;;21.59;90.30;101924.63;5039875;28;20049;-74
2023/08/11 11:21:30;;;;;;;4.93;4.53;;;;;;;21.64;90.45;101927.81;5039662;28;20095;-74
2023/08/11 11:23:56;;;;;;;6.03;4.20;;;;;;;21.65;89.75;101938.38;5040113;28;20064;-74